Time;durP1;ratioP1;P1;durP2;ratioP2;P2;SDS_P1;SDS_P2;PMS_P1;PMS_P2;Temp;Humidity;BMP_temperature;BMP_pressure;BME280_temperature;BME280_humidity;BME280_pressure;Samples;Min_cycle;Max_cycle;Signal;HPM_P1;HPM_P2
2023/07/30 00:01:10;;;;;;;8.77;5.60;;;25.70;86.10;;;;;;5043877;28;20197;-77
2023/07/30 00:03:37;;;;;;;7.50;4.83;;;25.80;86.00;;;;;;5047394;28;20606;-77
2023/07/30 00:06:04;;;;;;;9.57;5.30;;;25.80;85.90;;;;;;5043937;28;20224;-77
2023/07/30 00:08:31;;;;;;;7.47;5.00;;;25.90;86.10;;;;;;5045988;28;20198;-77
2023/07/30 00:10:58;;;;;;;11.97;5.63;;;25.90;86.20;;;;;;5043008;28;20217;-77
2023/07/30 00:13:26;;;;;;;6.60;5.27;;;25.90;86.30;;;;;;5040714;28;20195;-77
2023/07/30 00:15:53;;;;;;;9.27;5.20;;;25.90;86.20;;;;;;5048839;28;20198;-78
2023/07/30 00:18:20;;;;;;;6.73;5.13;;;26.00;86.00;;;;;;5045161;28;20239;-76
2023/07/30 00:20:47;;;;;;;8.10;5.20;;;26.00;85.60;;;;;;5075136;28;20207;-77
2023/07/30 00:23:14;;;;;;;7.67;5.07;;;26.00;85.20;;;;;;5039287;28;20657;-77
2023/07/30 00:25:41;;;;;;;6.50;4.90;;;26.00;85.20;;;;;;5049213;28;20206;-78
2023/07/30 00:28:08;;;;;;;9.30;4.93;;;26.10;85.30;;;;;;5042474;28;20204;-77
2023/07/30 00:30:35;;;;;;;6.60;4.73;;;26.10;85.10;;;;;;5051436;28;20265;-77
2023/07/30 00:33:03;;;;;;;6.73;4.60;;;26.20;84.90;;;;;;5050010;28;20272;-77
2023/07/30 00:35:30;;;;;;;6.63;4.20;;;26.20;84.40;;;;;;5048583;28;20546;-78
2023/07/30 00:37:57;;;;;;;5.80;4.30;;;26.20;83.90;;;;;;5037475;28;20214;-77
2023/07/30 00:40:24;;;;;;;7.50;4.30;;;26.20;83.50;;;;;;5050213;28;20509;-77
2023/07/30 00:42:51;;;;;;;7.73;4.37;;;26.30;82.90;;;;;;5037259;28;20229;-77
2023/07/30 00:45:18;;;;;;;5.33;4.20;;;26.30;82.60;;;;;;5042907;28;20797;-76
2023/07/30 00:47:45;;;;;;;5.07;3.70;;;26.30;82.10;;;;;;5049576;28;20206;-77
2023/07/30 00:50:14;;;;;;;5.53;3.13;;;26.30;81.30;;;;;;5046752;28;20236;-77
2023/07/30 00:52:43;;;;;;;7.53;3.70;;;26.30;79.20;;;;;;5049723;28;20591;-76
2023/07/30 00:55:11;;;;;;;4.03;3.63;;;26.40;78.00;;;;;;5047962;28;20249;-77
2023/07/30 00:57:39;;;;;;;4.63;3.77;;;26.40;77.10;;;;;;5049669;28;20222;-77
2023/07/30 01:00:08;;;;;;;9.50;4.37;;;26.50;77.20;;;;;;5048675;28;20214;-77
2023/07/30 01:02:36;;;;;;;4.50;3.73;;;26.50;77.50;;;;;;5040425;28;20207;-78
2023/07/30 01:05:04;;;;;;;5.27;3.87;;;26.50;77.70;;;;;;5047861;28;20214;-77
2023/07/30 01:07:31;;;;;;;7.30;3.67;;;26.50;77.60;;;;;;5054298;28;20268;-77
2023/07/30 01:10:01;;;;;;;10.73;3.63;;;26.50;77.90;;;;;;5050801;28;20209;-77
2023/07/30 01:12:30;;;;;;;6.93;3.30;;;26.60;78.00;;;;;;5045326;28;20289;-77
2023/07/30 01:14:58;;;;;;;7.23;3.10;;;26.60;77.80;;;;;;5041730;28;20215;-78
2023/07/30 01:17:25;;;;;;;9.23;3.47;;;26.60;77.60;;;;;;5049190;28;20215;-77
2023/07/30 01:19:56;;;;;;;7.33;3.00;;;26.50;77.50;;;;;;5042341;28;20255;-76
2023/07/30 01:22:23;;;;;;;9.93;3.10;;;26.50;77.70;;;;;;5052100;28;20207;-77
2023/07/30 01:24:50;;;;;;;5.17;2.90;;;26.50;77.70;;;;;;5037449;28;20206;-77
2023/07/30 01:27:30;;;;;;;4.10;2.63;;;26.50;78.10;;;;;;5051931;28;20212;-77
2023/07/30 01:30:22;;;;;;;7.87;3.40;;;26.40;78.30;;;;;;5041793;28;20220;-76
2023/07/30 01:32:51;;;;;;;10.23;3.00;;;26.40;78.90;;;;;;5039183;28;20721;-77
2023/07/30 01:35:27;;;;;;;5.70;3.77;;;26.30;79.60;;;;;;5036029;28;20808;-77
2023/07/30 01:37:55;;;;;;;6.30;3.70;;;26.20;80.00;;;;;;5051033;28;20214;-77
2023/07/30 01:40:22;;;;;;;6.97;3.60;;;26.20;80.80;;;;;;5037109;28;20276;-77
2023/07/30 01:42:49;;;;;;;8.10;4.23;;;26.10;81.30;;;;;;5051783;28;20261;-77
2023/07/30 01:45:17;;;;;;;7.23;4.00;;;26.10;82.10;;;;;;5045865;28;20204;-77
2023/07/30 01:47:44;;;;;;;8.97;5.03;;;26.00;82.50;;;;;;5028348;28;20265;-76
2023/07/30 01:50:12;;;;;;;8.53;4.90;;;26.00;83.10;;;;;;5048047;28;20230;-76
2023/07/30 01:52:38;;;;;;;7.27;4.43;;;25.90;83.60;;;;;;5054489;28;20206;-77
2023/07/30 01:55:06;;;;;;;9.87;4.57;;;25.90;84.10;;;;;;5051592;28;20233;-76
2023/07/30 01:57:33;;;;;;;9.93;5.83;;;25.90;84.60;;;;;;5047678;28;20215;-78
2023/07/30 02:00:00;;;;;;;10.60;5.80;;;25.80;85.00;;;;;;5038397;28;20211;-77
2023/07/30 02:02:28;;;;;;;12.50;6.53;;;25.80;85.70;;;;;;5030085;28;20214;-76
2023/07/30 02:04:55;;;;;;;9.30;6.40;;;25.80;86.20;;;;;;5033641;28;20199;-76
2023/07/30 02:07:22;;;;;;;10.33;5.97;;;25.70;86.80;;;;;;5034378;28;20217;-77
2023/07/30 02:09:49;;;;;;;9.30;6.27;;;25.70;87.20;;;;;;5050363;28;20542;-77
2023/07/30 02:12:16;;;;;;;11.17;5.10;;;25.70;87.20;;;;;;5042011;28;20267;-77
2023/07/30 02:14:43;;;;;;;9.60;4.40;;;25.60;87.10;;;;;;5039034;28;20254;-77
2023/07/30 02:17:10;;;;;;;6.17;3.80;;;25.60;87.10;;;;;;5044163;28;20201;-77
2023/07/30 02:19:38;;;;;;;9.20;3.60;;;25.50;87.20;;;;;;5035665;28;20198;-78
2023/07/30 02:22:05;;;;;;;5.30;3.20;;;25.50;87.30;;;;;;5047114;28;20289;-77
2023/07/30 02:24:33;;;;;;;3.47;2.20;;;25.50;87.50;;;;;;5042337;28;20323;-77
2023/07/30 02:27:00;;;;;;;3.40;2.00;;;25.40;87.40;;;;;;5035552;28;20485;-77
2023/07/30 02:29:28;;;;;;;2.27;1.67;;;25.40;87.00;;;;;;5021513;28;20227;-77
2023/07/30 02:31:55;;;;;;;6.43;1.50;;;25.30;86.80;;;;;;5045253;28;20207;-77
2023/07/30 02:34:22;;;;;;;4.03;1.60;;;25.30;86.70;;;;;;5067027;28;20553;-77
2023/07/30 02:36:49;;;;;;;2.13;1.40;;;25.20;86.60;;;;;;5041814;28;20199;-77
2023/07/30 02:39:16;;;;;;;2.13;1.10;;;25.20;86.80;;;;;;5042655;28;20216;-77
2023/07/30 02:41:43;;;;;;;9.20;1.30;;;25.20;86.80;;;;;;5050675;28;20544;-77
2023/07/30 02:44:10;;;;;;;1.60;1.17;;;25.20;86.80;;;;;;5052333;28;20217;-78
2023/07/30 02:46:37;;;;;;;3.27;1.17;;;25.20;86.70;;;;;;5050641;28;20288;-78
2023/07/30 02:49:04;;;;;;;2.93;1.20;;;25.20;86.50;;;;;;5047909;28;20216;-78
2023/07/30 02:51:31;;;;;;;2.10;1.30;;;25.20;86.50;;;;;;5040668;28;20203;-78
2023/07/30 02:54:03;;;;;;;1.93;1.17;;;25.20;86.60;;;;;;5038583;28;20230;-77
2023/07/30 02:56:30;;;;;;;2.63;1.67;;;25.20;86.70;;;;;;5054382;28;20207;-77
2023/07/30 02:58:59;;;;;;;4.33;1.40;;;25.20;86.80;;;;;;5046882;28;20250;-78
2023/07/30 03:01:26;;;;;;;5.17;1.40;;;25.20;86.80;;;;;;5027473;28;20599;-78
2023/07/30 03:03:53;;;;;;;1.93;1.07;;;25.20;86.80;;;;;;5053311;28;20212;-78
2023/07/30 03:06:20;;;;;;;1.87;1.17;;;25.20;86.80;;;;;;5042805;28;20824;-78
2023/07/30 03:08:47;;;;;;;4.60;1.10;;;25.20;86.70;;;;;;5083214;28;20208;-78
2023/07/30 03:11:14;;;;;;;3.87;1.40;;;25.10;86.80;;;;;;5049417;28;20200;-78
2023/07/30 03:13:41;;;;;;;3.03;1.43;;;25.00;86.90;;;;;;5048672;28;20202;-78
2023/07/30 03:16:08;;;;;;;1.97;1.40;;;25.00;87.20;;;;;;5047036;28;20295;-78
2023/07/30 03:18:36;;;;;;;3.07;1.40;;;25.00;87.50;;;;;;5046033;28;20251;-78
2023/07/30 03:21:03;;;;;;;2.23;1.00;;;25.00;87.80;;;;;;5045862;28;20261;-77
2023/07/30 03:23:31;;;;;;;2.70;1.33;;;24.90;88.00;;;;;;5050748;28;20200;-77
2023/07/30 03:26:00;;;;;;;5.47;1.60;;;24.90;88.20;;;;;;5043491;28;20257;-77
2023/07/30 03:28:28;;;;;;;2.77;1.40;;;24.80;88.30;;;;;;5049953;28;20232;-78
2023/07/30 03:30:55;;;;;;;2.07;1.70;;;24.80;88.50;;;;;;5041621;28;20216;-78
2023/07/30 03:33:22;;;;;;;5.10;1.97;;;24.70;88.60;;;;;;5053191;28;20295;-78
2023/07/30 03:35:51;;;;;;;3.90;2.60;;;24.70;88.90;;;;;;5044750;28;20207;-78
2023/07/30 03:38:18;;;;;;;5.73;2.47;;;24.70;89.10;;;;;;5038296;28;20218;-78
2023/07/30 03:40:53;;;;;;;4.27;3.10;;;24.70;89.20;;;;;;5040811;28;20650;-78
2023/07/30 03:43:23;;;;;;;5.23;3.00;;;24.70;89.40;;;;;;5051647;28;20210;-78
2023/07/30 03:45:50;;;;;;;5.37;3.37;;;24.70;89.40;;;;;;5051913;28;20194;-79
2023/07/30 03:48:18;;;;;;;6.07;3.07;;;24.70;89.40;;;;;;5031587;28;20630;-78
2023/07/30 03:50:45;;;;;;;3.43;3.00;;;24.70;89.40;;;;;;5052920;28;20199;-78
2023/07/30 03:53:12;;;;;;;4.60;3.07;;;24.70;89.40;;;;;;5045702;28;20280;-79
2023/07/30 03:55:40;;;;;;;3.57;3.10;;;24.70;89.40;;;;;;5053053;28;20236;-78
2023/07/30 03:58:08;;;;;;;3.03;2.70;;;24.60;89.40;;;;;;5042383;28;20226;-78
2023/07/30 04:00:35;;;;;;;8.87;3.10;;;24.60;89.40;;;;;;5054886;28;20212;-78
2023/07/30 04:03:06;;;;;;;3.50;2.50;;;24.60;89.40;;;;;;5046903;28;20702;-79
2023/07/30 04:05:34;;;;;;;10.80;3.53;;;24.60;89.50;;;;;;5054521;28;20202;-79
2023/07/30 04:08:02;;;;;;;4.40;2.73;;;24.50;89.70;;;;;;5051251;28;20211;-78
2023/07/30 04:10:29;;;;;;;5.53;3.07;;;24.50;89.90;;;;;;5041207;28;20203;-78
2023/07/30 04:12:59;;;;;;;6.10;3.10;;;24.40;90.00;;;;;;5029020;28;20257;-78
2023/07/30 04:15:27;;;;;;;3.17;2.60;;;24.30;90.20;;;;;;5043308;28;20576;-78
2023/07/30 04:17:54;;;;;;;4.27;3.00;;;24.30;90.30;;;;;;5040739;28;20217;-78
2023/07/30 04:20:25;;;;;;;6.60;2.87;;;24.30;90.40;;;;;;5029220;28;20207;-78
2023/07/30 04:22:54;;;;;;;5.50;3.00;;;24.30;90.40;;;;;;5035386;28;20252;-78
2023/07/30 04:25:24;;;;;;;8.13;3.23;;;24.20;90.50;;;;;;5047269;28;20210;-78
2023/07/30 04:27:51;;;;;;;4.40;2.97;;;24.20;90.60;;;;;;5033471;28;20211;-78
2023/07/30 04:30:22;;;;;;;4.43;3.03;;;24.10;90.80;;;;;;5031955;28;20229;-77
2023/07/30 04:32:49;;;;;;;3.70;2.90;;;24.10;90.90;;;;;;5048970;28;20217;-77
2023/07/30 04:35:16;;;;;;;4.53;3.27;;;24.10;91.10;;;;;;5052037;28;20642;-78
2023/07/30 04:37:43;;;;;;;6.07;3.37;;;24.00;91.30;;;;;;5043884;28;20545;-78
2023/07/30 04:40:18;;;;;;;5.93;3.60;;;23.90;91.50;;;;;;5053911;28;20222;-77
2023/07/30 04:42:46;;;;;;;5.73;3.20;;;23.90;91.60;;;;;;5042735;28;20199;-78
2023/07/30 04:45:13;;;;;;;6.33;3.33;;;23.90;91.70;;;;;;5036787;28;20237;-78
2023/07/30 04:47:46;;;;;;;3.47;3.13;;;23.90;91.70;;;;;;5031517;28;20203;-77
2023/07/30 04:50:20;;;;;;;4.23;3.03;;;23.90;91.70;;;;;;5029763;28;20217;-78
2023/07/30 04:52:47;;;;;;;6.20;3.07;;;23.90;91.70;;;;;;5040709;28;20636;-78
2023/07/30 04:55:18;;;;;;;3.70;3.33;;;23.90;91.80;;;;;;5051649;28;20227;-78
2023/07/30 04:57:49;;;;;;;5.60;3.23;;;24.00;91.80;;;;;;5038334;28;20195;-77
2023/07/30 05:00:16;;;;;;;3.70;3.27;;;24.00;91.80;;;;;;5042045;28;20222;-77
2023/07/30 05:02:43;;;;;;;3.20;2.90;;;24.00;91.80;;;;;;5028841;28;20562;-78
2023/07/30 05:05:12;;;;;;;4.13;3.07;;;24.00;91.90;;;;;;5047248;28;20198;-79
2023/07/30 05:07:40;;;;;;;5.07;2.80;;;24.00;91.80;;;;;;5022924;28;20199;-78
2023/07/30 05:10:10;;;;;;;3.47;3.10;;;24.00;91.70;;;;;;5044956;28;20212;-78
2023/07/30 05:12:52;;;;;;;3.70;3.27;;;24.10;91.60;;;;;;5047270;28;20202;-77
2023/07/30 05:15:20;;;;;;;4.13;3.43;;;24.10;91.70;;;;;;5050011;28;20207;-78
2023/07/30 05:17:47;;;;;;;5.93;3.67;;;24.10;91.70;;;;;;5046136;28;20207;-77
2023/07/30 05:20:14;;;;;;;6.17;3.47;;;24.20;91.80;;;;;;5036272;28;20306;-77
2023/07/30 05:22:42;;;;;;;8.27;6.57;;;24.20;91.90;;;;;;5035609;28;20641;-77
2023/07/30 05:25:09;;;;;;;5.97;5.37;;;24.20;91.90;;;;;;5032826;28;20203;-78
2023/07/30 05:27:36;;;;;;;6.43;4.23;;;24.30;92.10;;;;;;5030271;28;20198;-77
2023/07/30 05:30:04;;;;;;;7.47;4.17;;;24.30;91.90;;;;;;5049637;28;20220;-77
2023/07/30 05:32:32;;;;;;;4.07;3.67;;;24.30;92.20;;;;;;5044403;28;20206;-78
2023/07/30 05:34:59;;;;;;;4.27;3.87;;;24.40;91.90;;;;;;5050005;28;20210;-77
2023/07/30 05:37:35;;;;;;;4.50;3.43;;;24.40;91.80;;;;;;5040246;28;20198;-77
2023/07/30 05:40:12;;;;;;;7.13;3.57;;;24.50;91.80;;;;;;5036709;28;20219;-77
2023/07/30 05:42:40;;;;;;;4.50;3.83;;;24.50;91.90;;;;;;5046062;28;20268;-79
2023/07/30 05:45:08;;;;;;;4.67;4.07;;;24.50;91.80;;;;;;5044022;28;20199;-78
2023/07/30 05:47:35;;;;;;;5.57;3.30;;;24.50;91.80;;;;;;5043819;28;20203;-78
2023/07/30 05:50:03;;;;;;;6.40;3.73;;;24.60;91.80;;;;;;5031611;28;20231;-77
2023/07/30 05:52:31;;;;;;;4.50;3.50;;;24.80;91.70;;;;;;5047065;28;20199;-78
2023/07/30 05:54:58;;;;;;;4.10;3.30;;;24.90;91.50;;;;;;5045432;28;20249;-78
2023/07/30 05:57:28;;;;;;;3.53;3.23;;;25.00;91.20;;;;;;5043179;28;20282;-78
2023/07/30 05:59:56;;;;;;;3.50;2.77;;;25.10;91.00;;;;;;5050668;28;20563;-78
2023/07/30 06:02:23;;;;;;;3.47;3.10;;;25.20;90.80;;;;;;5045547;28;20572;-78
2023/07/30 06:04:51;;;;;;;3.83;3.20;;;25.30;90.80;;;;;;5030377;28;20210;-78
2023/07/30 06:07:18;;;;;;;3.97;3.20;;;25.40;90.70;;;;;;5041461;28;20197;-78
2023/07/30 06:09:45;;;;;;;3.83;3.13;;;25.60;90.40;;;;;;5042266;28;20271;-78
2023/07/30 06:12:12;;;;;;;3.17;2.90;;;25.70;90.30;;;;;;5039954;28;20213;-78
2023/07/30 06:14:40;;;;;;;4.47;3.00;;;25.70;90.10;;;;;;5050582;28;20215;-78
2023/07/30 06:17:07;;;;;;;5.00;3.07;;;25.80;90.00;;;;;;5028421;28;20196;-78
2023/07/30 06:19:34;;;;;;;3.00;2.70;;;26.00;89.70;;;;;;5042294;28;20222;-78
2023/07/30 06:22:04;;;;;;;3.53;2.83;;;26.00;89.30;;;;;;5046869;28;20237;-78
2023/07/30 06:24:32;;;;;;;4.43;2.73;;;26.10;88.90;;;;;;5047640;28;20191;-79
2023/07/30 06:27:02;;;;;;;3.00;2.70;;;26.20;88.80;;;;;;5039724;28;20197;-76
2023/07/30 06:29:32;;;;;;;6.57;2.90;;;26.20;87.80;;;;;;5048736;28;20198;-77
2023/07/30 06:31:59;;;;;;;4.33;2.70;;;26.30;87.50;;;;;;5046329;28;20211;-77
2023/07/30 06:34:28;;;;;;;5.07;2.90;;;26.40;87.30;;;;;;5044466;28;20224;-78
2023/07/30 06:36:55;;;;;;;3.93;2.80;;;26.50;87.20;;;;;;5040230;28;20565;-78
2023/07/30 06:39:26;;;;;;;5.57;2.57;;;26.50;86.80;;;;;;5050136;28;20250;-78
2023/07/30 06:41:53;;;;;;;2.93;2.47;;;26.60;86.10;;;;;;5031506;28;20316;-78
2023/07/30 06:44:21;;;;;;;4.47;2.43;;;26.70;86.10;;;;;;5051411;28;20236;-78
2023/07/30 06:46:48;;;;;;;3.23;2.57;;;26.90;86.10;;;;;;5045643;28;20637;-78
2023/07/30 06:49:15;;;;;;;4.67;2.43;;;27.00;85.20;;;;;;5044245;28;20281;-77
2023/07/30 06:51:42;;;;;;;3.70;2.70;;;27.10;84.70;;;;;;5031920;28;20210;-77
2023/07/30 06:54:10;;;;;;;3.37;2.60;;;27.20;84.60;;;;;;5055999;28;20288;-78
2023/07/30 06:56:38;;;;;;;3.20;2.90;;;27.40;84.10;;;;;;5039882;28;20272;-78
2023/07/30 06:59:05;;;;;;;3.30;3.00;;;27.60;83.30;;;;;;5037770;28;20684;-78
2023/07/30 07:01:32;;;;;;;3.80;3.10;;;27.60;82.80;;;;;;5042289;28;20201;-79
2023/07/30 07:04:06;;;;;;;8.23;3.50;;;27.70;81.90;;;;;;5043263;28;20560;-78
2023/07/30 07:06:36;;;;;;;2.50;2.30;;;27.80;81.90;;;;;;5038958;28;20290;-78
2023/07/30 07:09:03;;;;;;;2.37;2.07;;;27.80;81.70;;;;;;5056758;28;20213;-77
2023/07/30 07:11:31;;;;;;;3.90;1.87;;;28.00;81.00;;;;;;5057126;28;20218;-78
2023/07/30 07:13:58;;;;;;;4.97;2.17;;;28.10;79.70;;;;;;5041387;28;20654;-77
2023/07/30 07:16:25;;;;;;;3.27;2.00;;;28.20;77.50;;;;;;5044320;28;20597;-77
2023/07/30 07:18:53;;;;;;;2.30;1.50;;;28.20;77.90;;;;;;5050041;28;20226;-78
2023/07/30 07:21:20;;;;;;;2.53;2.17;;;28.30;77.90;;;;;;5046251;28;20208;-77
2023/07/30 07:23:47;;;;;;;1.90;1.57;;;28.40;77.40;;;;;;5047875;28;20206;-77
2023/07/30 07:26:17;;;;;;;1.63;1.53;;;28.50;76.80;;;;;;5039378;28;20230;-78
2023/07/30 07:28:45;;;;;;;2.73;1.60;;;28.60;76.40;;;;;;5053168;28;20206;-78
2023/07/30 07:31:13;;;;;;;4.97;1.80;;;28.70;76.10;;;;;;5053457;28;20233;-78
2023/07/30 07:33:45;;;;;;;3.50;1.83;;;28.80;75.70;;;;;;5040951;28;20195;-78
2023/07/30 07:36:14;;;;;;;2.33;1.50;;;29.00;74.90;;;;;;5062856;28;20203;-77
2023/07/30 07:38:44;;;;;;;1.77;1.60;;;29.20;73.70;;;;;;5047526;28;20202;-78
2023/07/30 07:41:18;;;;;;;1.67;1.57;;;29.20;72.60;;;;;;5045379;28;20289;-78
2023/07/30 07:43:52;;;;;;;4.60;1.60;;;29.30;72.50;;;;;;5048368;28;20195;-77
2023/07/30 07:46:19;;;;;;;3.00;1.87;;;29.30;72.60;;;;;;5034443;28;20222;-77
2023/07/30 07:48:47;;;;;;;3.03;1.80;;;29.40;71.80;;;;;;5036408;28;20221;-78
2023/07/30 07:51:14;;;;;;;1.83;1.70;;;29.50;71.10;;;;;;5050239;28;20203;-78
2023/07/30 07:53:41;;;;;;;4.10;1.57;;;29.50;70.80;;;;;;5056985;28;20315;-77
2023/07/30 07:56:11;;;;;;;1.27;1.17;;;29.70;70.30;;;;;;5051937;28;20203;-77
2023/07/30 07:58:39;;;;;;;1.67;1.57;;;29.80;68.30;;;;;;5051892;28;20222;-76
2023/07/30 08:01:09;;;;;;;2.00;1.47;;;29.80;68.40;;;;;;5029412;28;20233;-77
2023/07/30 08:03:39;;;;;;;1.87;1.43;;;30.00;68.80;;;;;;5046897;28;20257;-77
2023/07/30 08:06:07;;;;;;;2.90;1.60;;;30.20;68.40;;;;;;5042318;28;20203;-77
2023/07/30 08:08:35;;;;;;;2.70;1.13;;;30.20;66.90;;;;;;5050786;28;20199;-77
2023/07/30 08:11:07;;;;;;;7.07;1.80;;;30.20;67.60;;;;;;5049358;28;20198;-78
2023/07/30 08:13:37;;;;;;;4.20;1.67;;;30.30;67.20;;;;;;5045760;28;20211;-77
2023/07/30 08:16:05;;;;;;;2.73;1.63;;;30.40;67.10;;;;;;5065567;28;20211;-77
2023/07/30 08:18:32;;;;;;;1.73;1.40;;;30.40;66.70;;;;;;5050359;28;20269;-78
2023/07/30 08:21:00;;;;;;;1.57;1.47;;;30.50;66.50;;;;;;5047876;28;20604;-78
2023/07/30 08:23:28;;;;;;;2.27;1.57;;;30.70;66.60;;;;;;5083062;28;20227;-78
2023/07/30 08:25:56;;;;;;;2.17;1.93;;;30.90;66.20;;;;;;5035956;28;20203;-77
2023/07/30 08:28:27;;;;;;;2.13;1.50;;;31.10;65.20;;;;;;5050012;28;20203;-77
2023/07/30 08:31:03;;;;;;;2.00;1.80;;;31.20;64.80;;;;;;5037969;28;20202;-78
2023/07/30 08:33:30;;;;;;;1.80;1.67;;;31.30;64.70;;;;;;5040102;28;20195;-77
2023/07/30 08:35:59;;;;;;;2.77;1.97;;;31.40;64.40;;;;;;5041379;28;20195;-78
2023/07/30 08:38:28;;;;;;;2.10;2.00;;;31.50;63.50;;;;;;5045679;28;20207;-77
2023/07/30 08:40:55;;;;;;;1.90;1.70;;;31.50;62.50;;;;;;5035655;28;20289;-77
2023/07/30 08:43:23;;;;;;;2.17;1.73;;;31.50;63.00;;;;;;5035946;28;20623;-78
2023/07/30 08:45:53;;;;;;;3.27;1.87;;;31.40;63.00;;;;;;5049316;28;20220;-78
2023/07/30 08:48:26;;;;;;;1.50;1.40;;;31.50;63.20;;;;;;5039900;28;20250;-78
2023/07/30 08:50:59;;;;;;;2.40;1.50;;;31.60;62.40;;;;;;5037986;28;20226;-78
2023/07/30 08:53:29;;;;;;;2.33;1.57;;;31.50;62.70;;;;;;5051525;28;20245;-77
2023/07/30 08:55:58;;;;;;;1.50;1.40;;;31.60;62.80;;;;;;5041179;28;20203;-77
2023/07/30 08:58:27;;;;;;;1.70;1.60;;;31.70;63.10;;;;;;5045656;28;20195;-77
2023/07/30 09:00:55;;;;;;;1.67;1.57;;;31.90;63.00;;;;;;5024465;28;20272;-78
2023/07/30 09:03:26;;;;;;;2.60;1.70;;;32.10;62.70;;;;;;5055334;28;20241;-78
2023/07/30 09:05:53;;;;;;;1.60;1.50;;;32.20;61.50;;;;;;5054369;28;20201;-78
2023/07/30 09:08:22;;;;;;;3.50;1.67;;;32.30;61.30;;;;;;5019190;28;20226;-78
2023/07/30 09:10:50;;;;;;;2.23;2.03;;;32.40;60.60;;;;;;5048512;28;20229;-78
2023/07/30 09:13:24;;;;;;;2.17;1.90;;;32.30;60.20;;;;;;5037843;28;20203;-77
2023/07/30 09:15:54;;;;;;;3.40;1.90;;;32.30;60.60;;;;;;5027864;28;20202;-77
2023/07/30 09:18:22;;;;;;;2.27;2.00;;;32.30;60.60;;;;;;5054890;28;20206;-78
2023/07/30 09:20:49;;;;;;;2.20;1.80;;;32.40;60.70;;;;;;5043007;28;20241;-78
2023/07/30 09:23:17;;;;;;;2.90;1.80;;;32.50;59.90;;;;;;5035504;28;20297;-78
2023/07/30 09:25:49;;;;;;;2.17;1.80;;;32.50;60.00;;;;;;5035907;28;20229;-78
2023/07/30 09:28:19;;;;;;;2.50;1.90;;;32.60;60.60;;;;;;5034631;28;20271;-77
2023/07/30 09:30:50;;;;;;;3.67;1.93;;;32.60;59.30;;;;;;5037058;28;20294;-78
2023/07/30 09:33:22;;;;;;;4.23;2.13;;;32.60;59.30;;;;;;5050008;28;20222;-77
2023/07/30 09:35:50;;;;;;;2.03;1.80;;;32.60;59.80;;;;;;5048582;28;20211;-78
2023/07/30 09:38:19;;;;;;;3.13;2.13;;;32.80;59.80;;;;;;5039077;28;20202;-77
2023/07/30 09:40:49;;;;;;;2.30;1.97;;;32.80;59.50;;;;;;5051396;28;20229;-77
2023/07/30 09:43:17;;;;;;;3.07;2.43;;;32.90;59.20;;;;;;5076551;28;20230;-78
2023/07/30 09:45:48;;;;;;;2.50;2.30;;;32.90;59.20;;;;;;5051478;28;20618;-78
2023/07/30 09:48:16;;;;;;;2.33;2.00;;;33.00;59.30;;;;;;5079604;28;20234;-77
2023/07/30 09:50:47;;;;;;;2.73;2.37;;;33.20;59.20;;;;;;5049215;28;20203;-77
2023/07/30 09:53:19;;;;;;;4.70;2.20;;;33.30;57.80;;;;;;5050539;28;20239;-78
2023/07/30 09:55:51;;;;;;;2.20;1.90;;;33.10;57.60;;;;;;5053530;28;20291;-78
2023/07/30 09:58:23;;;;;;;4.10;2.40;;;32.80;58.50;;;;;;5035394;28;20202;-78
2023/07/30 10:01:02;;;;;;;3.67;2.03;;;32.70;58.90;;;;;;5026547;28;20214;-77
2023/07/30 10:03:33;;;;;;;4.43;2.23;;;32.70;59.30;;;;;;5046175;28;20519;-78
2023/07/30 10:06:04;;;;;;;4.30;2.43;;;32.90;59.10;;;;;;5051657;28;20261;-78
2023/07/30 10:08:38;;;;;;;3.50;2.23;;;33.10;58.80;;;;;;5054250;28;20613;-78
2023/07/30 10:11:09;;;;;;;3.40;1.90;;;33.40;57.80;;;;;;5034738;28;20211;-78
2023/07/30 10:13:41;;;;;;;6.57;2.27;;;33.40;57.90;;;;;;5034923;28;20287;-78
2023/07/30 10:16:11;;;;;;;2.30;2.00;;;33.20;57.30;;;;;;5049071;28;20198;-78
2023/07/30 10:18:40;;;;;;;2.40;2.17;;;33.10;58.40;;;;;;5050709;28;20213;-78
2023/07/30 10:21:09;;;;;;;3.70;2.10;;;33.10;58.40;;;;;;5047636;28;20221;-78
2023/07/30 10:24:11;;;;;;;4.87;2.20;;;33.20;57.60;;;;;;5045484;28;20204;-77
2023/07/30 10:26:39;;;;;;;3.07;2.30;;;33.10;57.30;;;;;;5035576;28;20222;-77
2023/07/30 10:29:23;;;;;;;3.10;1.80;;;32.80;56.80;;;;;;5029325;28;20222;-77
2023/07/30 10:31:55;;;;;;;2.60;2.40;;;32.50;57.70;;;;;;5045657;28;20199;-77
2023/07/30 10:34:50;;;;;;;6.03;2.60;;;32.20;58.70;;;;;;5046740;28;20206;-77
2023/07/30 10:37:20;;;;;;;2.17;1.97;;;32.10;59.90;;;;;;5050412;28;20292;-78
2023/07/30 10:39:51;;;;;;;5.50;2.30;;;32.30;59.00;;;;;;5053916;28;20221;-78
2023/07/30 10:42:22;;;;;;;2.20;2.00;;;32.60;58.90;;;;;;5042850;28;20261;-78
2023/07/30 10:44:49;;;;;;;2.63;2.10;;;32.80;58.40;;;;;;5053704;28;20205;-78
2023/07/30 10:47:16;;;;;;;3.10;2.27;;;32.90;58.30;;;;;;5048362;28;20272;-78
2023/07/30 10:50:05;;;;;;;2.40;1.90;;;33.20;57.60;;;;;;5045047;28;20241;-77
2023/07/30 10:52:39;;;;;;;2.47;2.27;;;33.40;56.80;;;;;;5041556;28;20202;-77
2023/07/30 10:55:07;;;;;;;2.80;2.23;;;33.60;57.10;;;;;;5052066;28;20313;-77
2023/07/30 10:57:34;;;;;;;3.83;2.07;;;33.80;57.00;;;;;;5038828;28;20284;-78
2023/07/30 11:00:05;;;;;;;2.23;2.03;;;34.00;56.40;;;;;;5042312;28;20289;-77
2023/07/30 11:02:32;;;;;;;4.33;1.97;;;34.20;55.30;;;;;;5052837;28;20223;-77
2023/07/30 11:05:12;;;;;;;2.97;2.57;;;34.30;55.40;;;;;;5037736;28;20293;-77
2023/07/30 11:07:49;;;;;;;4.00;2.03;;;34.30;54.80;;;;;;5030358;28;20298;-78
2023/07/30 11:10:17;;;;;;;2.60;2.23;;;34.30;54.80;;;;;;5046525;28;20307;-78
2023/07/30 11:12:45;;;;;;;1.90;1.80;;;34.30;54.70;;;;;;5037280;28;20207;-77
2023/07/30 11:15:12;;;;;;;3.23;2.20;;;34.20;54.50;;;;;;5050862;28;20245;-78
2023/07/30 11:17:44;;;;;;;2.90;1.90;;;34.10;54.80;;;;;;5039228;28;20272;-78
2023/07/30 11:20:31;;;;;;;2.60;2.40;;;34.10;54.90;;;;;;5041037;28;20678;-78
2023/07/30 11:23:17;;;;;;;3.40;2.00;;;34.20;54.70;;;;;;5035165;28;20195;-77
2023/07/30 11:25:55;;;;;;;2.80;2.00;;;34.30;54.70;;;;;;5048815;28;20194;-79
2023/07/30 11:28:37;;;;;;;2.87;2.10;;;34.50;54.80;;;;;;5052910;28;20214;-78
2023/07/30 11:31:07;;;;;;;2.80;1.90;;;34.70;54.10;;;;;;5052217;28;20241;-76
2023/07/30 11:33:43;;;;;;;3.50;2.03;;;34.90;53.90;;;;;;5045557;28;20630;-78
2023/07/30 11:36:14;;;;;;;2.72;2.17;;;35.10;53.50;;;;;;5056327;28;20294;-78
2023/07/30 11:38:50;;;;;;;2.30;2.03;;;35.30;52.40;;;;;;5057142;28;20202;-77
2023/07/30 11:41:17;;;;;;;2.00;1.90;;;35.30;51.80;;;;;;5057222;28;20215;-77
2023/07/30 11:43:48;;;;;;;2.42;2.22;;;35.20;52.00;;;;;;5057485;28;20252;-78
2023/07/30 11:46:18;;;;;;;2.67;2.10;;;35.20;52.80;;;;;;5052214;28;20218;-78
2023/07/30 11:48:51;;;;;;;3.27;2.07;;;35.10;52.20;;;;;;5045321;28;20195;-77
2023/07/30 11:51:24;;;;;;;2.77;2.00;;;34.90;52.30;;;;;;5056891;28;20277;-77
2023/07/30 11:54:00;;;;;;;4.30;1.70;;;34.60;52.90;;;;;;5030192;28;20243;-77
2023/07/30 11:56:31;;;;;;;3.77;2.10;;;34.40;52.40;;;;;;5057093;28;20201;-77
2023/07/30 11:59:11;;;;;;;2.27;2.07;;;34.40;53.10;;;;;;5043850;28;20226;-78
2023/07/30 12:02:01;;;;;;;2.73;2.20;;;34.50;52.70;;;;;;5040272;28;20577;-78
2023/07/30 12:04:47;;;;;;;2.63;2.07;;;34.50;52.40;;;;;;5036415;28;20294;-77
2023/07/30 12:07:35;;;;;;;3.23;2.50;;;34.30;53.00;;;;;;5052850;28;20211;-77
2023/07/30 12:10:13;;;;;;;3.23;2.20;;;34.20;53.90;;;;;;5045977;28;20195;-78
2023/07/30 12:12:52;;;;;;;2.37;2.07;;;34.30;53.40;;;;;;5037973;28;20179;-77
2023/07/30 12:15:22;;;;;;;3.20;2.13;;;34.30;53.90;;;;;;5050193;28;20199;-79
2023/07/30 12:17:50;;;;;;;1.90;1.80;;;34.50;54.30;;;;;;5049374;28;20202;-77
2023/07/30 12:20:19;;;;;;;2.75;2.10;;;34.60;54.50;;;;;;5041095;28;20230;-77
2023/07/30 12:22:46;;;;;;;2.60;2.38;;;34.80;53.30;;;;;;5044753;28;20195;-77
2023/07/30 12:25:13;;;;;;;2.30;1.92;;;34.80;52.30;;;;;;5051477;28;20241;-77
2023/07/30 12:27:41;;;;;;;3.08;2.30;;;34.70;52.10;;;;;;5048224;28;20509;-76
2023/07/30 12:30:08;;;;;;;2.53;1.77;;;34.50;52.60;;;;;;5042705;28;20199;-77
2023/07/30 12:32:45;;;;;;;2.27;1.90;;;34.60;52.60;;;;;;5045916;28;20198;-77
2023/07/30 12:35:33;;;;;;;2.47;2.15;;;34.80;52.50;;;;;;5050433;28;20740;-77
2023/07/30 12:38:01;;;;;;;3.42;2.10;;;34.90;52.60;;;;;;5044313;28;20646;-77
2023/07/30 12:40:33;;;;;;;2.92;2.45;;;35.10;52.30;;;;;;5043147;28;20281;-77
2023/07/30 12:43:03;;;;;;;2.67;2.47;;;35.20;52.20;;;;;;5047165;28;20248;-78
2023/07/30 12:45:31;;;;;;;3.53;2.00;;;35.30;51.80;;;;;;5035469;28;20294;-77
2023/07/30 12:48:00;;;;;;;3.87;2.07;;;35.30;51.40;;;;;;5039811;28;20700;-77
2023/07/30 12:50:27;;;;;;;4.93;2.10;;;35.30;51.40;;;;;;5040680;28;20294;-76
2023/07/30 12:52:54;;;;;;;3.03;2.63;;;35.30;51.50;;;;;;5042412;28;20198;-76
2023/07/30 12:55:21;;;;;;;2.47;2.20;;;35.20;51.00;;;;;;5054448;28;20235;-77
2023/07/30 12:57:48;;;;;;;3.00;2.78;;;35.10;50.90;;;;;;5040605;28;20202;-77